Bleiswijk, Netherlands
Current Conditions -  °F | °C
As of 8:25 AM on Wednesday 22 Oct 2014 (Local Time) from EHRD Reporting Station
Broken Clouds Broken Clouds  
Wind Chill: 50°   Ceiling: 4600
Heat Index: 50°   Visibility: 6mi
Dew Point: 41°   Wind: 16mph
Humidity: 71%   Direction: 300°WNW
Pressure: 30"   Gusts: NA
Location:  52.01°N, 4.53°E
Report Text: EHRD 220625Z AUTO 30014KT 270V350 9999 SCT020CB SCT037 BKN04610/05 Q1016 TEMPO 31022G32KT 7000 -SHRA
Loading
Personal Weather Stations






























Interactive Weather Map
Tropical Storm Tracking
New forecast layout! Learn more

10-Day Weather Forecast

Advertisements
Track Severe Weather on mobile